createdAt,value
2018-09-20T00:00:57.158Z,20.93
2018-09-20T00:02:32.663Z,20.91
2018-09-20T00:04:08.168Z,20.88
2018-09-20T00:05:43.626Z,20.94
2018-09-20T00:07:19.176Z,20.84
2018-09-20T00:08:54.665Z,20.77
2018-09-20T00:10:30.176Z,20.71
2018-09-20T00:12:05.700Z,20.70
2018-09-20T00:13:41.314Z,20.82
2018-09-20T00:15:16.781Z,20.84
2018-09-20T00:16:52.256Z,20.76
2018-09-20T00:18:27.755Z,20.76
2018-09-20T00:20:03.268Z,20.81
2018-09-20T00:21:39.193Z,20.78
2018-09-20T00:23:14.671Z,20.83
2018-09-20T00:24:50.176Z,20.85
2018-09-20T00:26:25.734Z,20.81
2018-09-20T00:28:01.229Z,20.88
2018-09-20T00:29:36.735Z,20.80
2018-09-20T00:31:12.204Z,20.77
2018-09-20T00:32:47.719Z,20.65
2018-09-20T00:34:23.345Z,20.65
2018-09-20T00:35:58.818Z,20.59
2018-09-20T00:37:34.303Z,20.63
2018-09-20T00:39:11.451Z,20.54
2018-09-20T00:40:46.923Z,20.66
2018-09-20T00:42:22.414Z,20.72
2018-09-20T00:43:57.870Z,20.79
2018-09-20T00:45:33.403Z,20.83
2018-09-20T00:47:08.876Z,20.82
2018-09-20T00:48:49.963Z,20.75
2018-09-20T00:50:25.501Z,20.66
2018-09-20T00:52:01.048Z,20.52
2018-09-20T00:53:36.547Z,20.44
2018-09-20T00:55:12.053Z,20.39
2018-09-20T00:56:47.561Z,20.41
2018-09-20T00:58:23.127Z,20.44
2018-09-20T00:59:58.631Z,20.54
2018-09-20T01:01:34.144Z,20.65
2018-09-20T01:03:09.644Z,20.66
2018-09-20T01:04:45.168Z,20.56
2018-09-20T01:06:20.736Z,20.48
2018-09-20T01:07:56.241Z,20.41
2018-09-20T01:09:31.810Z,20.29
2018-09-20T01:11:07.365Z,20.26
2018-09-20T01:12:42.894Z,20.27
2018-09-20T01:14:18.408Z,20.27
2018-09-20T01:15:53.974Z,20.40
2018-09-20T01:17:29.655Z,20.44
2018-09-20T01:19:05.675Z,20.39
2018-09-20T01:20:41.172Z,20.35
2018-09-20T01:22:16.692Z,20.49
2018-09-20T01:23:52.277Z,20.41
2018-09-20T01:25:27.802Z,20.34
2018-09-20T01:27:03.350Z,20.30
2018-09-20T01:28:38.892Z,20.33
2018-09-20T01:30:14.415Z,20.40
2018-09-20T01:31:50.060Z,20.38
2018-09-20T01:33:25.591Z,20.42
2018-09-20T01:35:01.110Z,20.47
2018-09-20T01:36:36.734Z,20.43
2018-09-20T01:38:12.217Z,20.27
2018-09-20T01:39:47.690Z,20.29
2018-09-20T01:41:23.188Z,20.40
2018-09-20T01:42:58.709Z,20.33
2018-09-20T01:44:34.273Z,20.24
2018-09-20T01:46:09.824Z,20.14
2018-09-20T01:47:45.421Z,20.12
2018-09-20T01:49:20.967Z,20.07
2018-09-20T01:50:56.507Z,20.10
2018-09-20T01:52:32.067Z,20.09
2018-09-20T01:54:13.871Z,20.04
2018-09-20T01:55:49.811Z,19.97
2018-09-20T01:57:25.375Z,20.12
2018-09-20T01:59:00.880Z,20.16
2018-09-20T02:00:36.481Z,20.00
2018-09-20T02:02:12.079Z,19.88
2018-09-20T02:03:47.578Z,19.90
2018-09-20T02:05:23.110Z,20.10
2018-09-20T02:06:58.703Z,20.16
2018-09-20T02:08:34.292Z,20.09
2018-09-20T02:10:09.779Z,20.09
2018-09-20T02:11:45.287Z,20.14
2018-09-20T02:13:20.827Z,20.19
2018-09-20T02:14:56.401Z,20.31
2018-09-20T02:16:31.926Z,20.32
2018-09-20T02:18:07.751Z,20.21
2018-09-20T02:19:43.273Z,20.12
2018-09-20T02:21:18.804Z,20.00
2018-09-20T02:22:54.796Z,20.04
2018-09-20T02:24:30.291Z,19.92
2018-09-20T02:26:05.764Z,20.01
2018-09-20T02:27:41.413Z,20.14
2018-09-20T02:29:16.956Z,20.06
2018-09-20T02:30:52.489Z,19.97
2018-09-20T02:32:28.095Z,20.01
2018-09-20T02:34:03.570Z,20.06
2018-09-20T02:35:39.127Z,20.10
2018-09-20T02:37:14.667Z,20.12
2018-09-20T02:38:50.175Z,19.94
2018-09-20T02:40:25.798Z,19.91
2018-09-20T02:42:01.320Z,19.78
2018-09-20T02:43:37.229Z,19.77
2018-09-20T02:45:12.747Z,19.77
2018-09-20T02:46:48.312Z,19.74
2018-09-20T02:48:23.894Z,19.88
2018-09-20T02:49:59.691Z,19.83
2018-09-20T02:51:35.173Z,19.83
2018-09-20T02:53:10.675Z,19.96
2018-09-20T02:54:46.227Z,19.80
2018-09-20T02:56:21.745Z,19.76
2018-09-20T02:57:57.308Z,19.82
2018-09-20T02:59:32.844Z,19.94
2018-09-20T03:01:08.338Z,19.88
2018-09-20T03:02:43.866Z,19.82
2018-09-20T03:04:19.398Z,19.82
2018-09-20T03:05:54.927Z,19.58
2018-09-20T03:07:30.440Z,19.55
2018-09-20T03:09:07.863Z,19.56
2018-09-20T03:10:43.370Z,19.74
2018-09-20T03:12:18.902Z,19.49
2018-09-20T03:13:54.516Z,19.78
2018-09-20T03:15:30.062Z,19.73
2018-09-20T03:17:05.706Z,19.57
2018-09-20T03:18:41.199Z,19.64
2018-09-20T03:20:16.832Z,19.49
2018-09-20T03:21:52.405Z,19.36
2018-09-20T03:23:27.989Z,19.42
2018-09-20T03:25:03.465Z,19.57
2018-09-20T03:26:38.941Z,19.48
2018-09-20T03:28:14.432Z,19.53
2018-09-20T03:29:50.048Z,19.55
2018-09-20T03:31:25.599Z,19.46
2018-09-20T03:33:01.143Z,19.42
2018-09-20T03:34:36.646Z,19.46
2018-09-20T03:36:12.183Z,19.47
2018-09-20T03:37:47.757Z,19.45
2018-09-20T03:39:23.273Z,19.53
2018-09-20T03:40:58.856Z,19.61
2018-09-20T03:42:34.396Z,19.65
2018-09-20T03:44:09.895Z,19.61
2018-09-20T03:45:45.393Z,19.49
2018-09-20T03:47:20.923Z,19.48
2018-09-20T03:48:56.475Z,19.56
2018-09-20T03:50:32.033Z,19.51
2018-09-20T03:52:07.574Z,19.47
2018-09-20T03:53:43.155Z,19.43
2018-09-20T03:55:18.651Z,19.51
2018-09-20T03:56:54.195Z,19.53
2018-09-20T03:58:29.711Z,19.62
2018-09-20T04:00:05.288Z,19.62
2018-09-20T04:01:40.754Z,19.63
2018-09-20T04:03:16.343Z,19.68
2018-09-20T04:04:51.851Z,19.48
2018-09-20T04:06:27.358Z,19.40
2018-09-20T04:08:02.911Z,19.35
2018-09-20T04:09:38.384Z,19.31
2018-09-20T04:11:13.843Z,19.35
2018-09-20T04:12:49.948Z,19.35
2018-09-20T04:14:25.454Z,19.41
2018-09-20T04:16:00.984Z,19.46
2018-09-20T04:17:36.589Z,19.22
2018-09-20T04:19:12.098Z,19.23
2018-09-20T04:20:47.595Z,19.19
2018-09-20T04:22:23.172Z,19.42
2018-09-20T04:23:59.300Z,19.37
2018-09-20T04:25:34.811Z,19.39
2018-09-20T04:27:10.297Z,19.41
2018-09-20T04:28:45.837Z,19.45
2018-09-20T04:30:21.388Z,19.49
2018-09-20T04:31:56.989Z,19.50
2018-09-20T04:33:32.451Z,19.34
2018-09-20T04:35:07.972Z,19.31
2018-09-20T04:36:49.803Z,19.31
2018-09-20T04:38:25.315Z,19.38
2018-09-20T04:40:00.856Z,19.41
2018-09-20T04:41:51.062Z,19.41
2018-09-20T04:43:26.613Z,19.50
2018-09-20T04:45:02.147Z,19.59
2018-09-20T04:46:37.660Z,19.51
2018-09-20T04:48:13.225Z,19.56
2018-09-20T04:49:48.848Z,19.47
2018-09-20T04:51:24.442Z,19.53
2018-09-20T04:52:59.967Z,19.48
2018-09-20T04:54:35.576Z,19.50
2018-09-20T04:56:11.164Z,19.40
2018-09-20T04:57:46.746Z,19.40
2018-09-20T04:59:22.265Z,19.38
2018-09-20T05:00:57.920Z,19.40
2018-09-20T05:02:33.497Z,19.50
2018-09-20T05:04:10.088Z,19.56
2018-09-20T05:05:45.887Z,19.54
2018-09-20T05:07:21.442Z,19.60
2018-09-20T05:08:56.988Z,19.69
2018-09-20T05:10:32.499Z,19.65
2018-09-20T05:12:08.139Z,19.58
2018-09-20T05:13:43.640Z,19.55
2018-09-20T05:15:19.136Z,19.65
2018-09-20T05:16:54.627Z,19.63
2018-09-20T05:18:30.208Z,19.68
2018-09-20T05:20:05.848Z,19.49
2018-09-20T05:21:55.906Z,19.05
2018-09-20T05:23:31.407Z,19.18
2018-09-20T05:25:07.019Z,19.18
2018-09-20T05:26:42.583Z,19.19
2018-09-20T05:28:18.032Z,19.27
2018-09-20T05:29:53.527Z,19.40
2018-09-20T05:31:29.040Z,19.69
2018-09-20T05:33:04.601Z,19.73
2018-09-20T05:34:40.168Z,19.80
2018-09-20T05:36:15.667Z,19.97
2018-09-20T05:37:51.155Z,20.12
2018-09-20T05:39:26.651Z,20.09
2018-09-20T05:41:02.202Z,20.16
2018-09-20T05:42:37.678Z,20.30
2018-09-20T05:44:13.198Z,20.29
2018-09-20T05:45:48.697Z,20.34
2018-09-20T05:47:24.207Z,20.43
2018-09-20T05:48:59.950Z,20.70
2018-09-20T05:50:35.465Z,20.68
2018-09-20T05:52:11.020Z,20.66
2018-09-20T05:53:47.703Z,20.90
2018-09-20T05:55:23.354Z,21.08
2018-09-20T05:56:58.926Z,21.18
2018-09-20T05:58:34.443Z,21.29
2018-09-20T06:00:10.230Z,21.40
2018-09-20T06:01:45.723Z,21.41
2018-09-20T06:03:21.286Z,21.39
2018-09-20T06:04:56.961Z,21.30
2018-09-20T06:06:32.448Z,21.41
2018-09-20T06:08:07.915Z,21.47
2018-09-20T06:09:43.614Z,21.51
2018-09-20T06:11:19.104Z,21.60
2018-09-20T06:12:54.918Z,21.59
2018-09-20T06:14:30.495Z,21.76
2018-09-20T06:16:06.720Z,21.78
2018-09-20T06:17:42.315Z,21.92
2018-09-20T06:19:18.040Z,21.94
2018-09-20T06:20:54.203Z,21.99
2018-09-20T06:22:30.719Z,22.03
2018-09-20T06:24:06.538Z,22.09
2018-09-20T06:25:42.102Z,22.09
2018-09-20T06:27:17.732Z,22.07
2018-09-20T06:28:53.383Z,22.06
2018-09-20T06:30:28.939Z,22.25
2018-09-20T06:32:19.012Z,22.47
2018-09-20T06:33:54.539Z,22.57
2018-09-20T06:35:30.372Z,22.46
2018-09-20T06:37:06.334Z,22.49
2018-09-20T06:38:41.969Z,22.52
2018-09-20T06:40:17.511Z,22.63
2018-09-20T06:41:53.171Z,22.54
2018-09-20T06:43:28.686Z,22.68
2018-09-20T06:45:04.232Z,22.81
2018-09-20T06:46:39.819Z,22.80
2018-09-20T06:48:15.298Z,22.50
2018-09-20T06:49:50.815Z,22.77
2018-09-20T06:51:26.312Z,23.04
2018-09-20T06:53:01.864Z,23.10
2018-09-20T06:54:37.358Z,23.17
2018-09-20T06:56:12.871Z,23.35
2018-09-20T06:57:48.369Z,23.21
2018-09-20T06:59:23.907Z,23.14
2018-09-20T07:00:59.420Z,23.28
2018-09-20T07:02:35.676Z,23.41
2018-09-20T07:04:11.183Z,23.40
2018-09-20T07:05:46.659Z,23.48
2018-09-20T07:07:22.199Z,23.36
2018-09-20T07:08:57.688Z,23.57
2018-09-20T07:10:33.212Z,23.53
2018-09-20T07:12:08.690Z,23.49
2018-09-20T07:13:44.236Z,23.78
2018-09-20T07:15:19.732Z,23.73
2018-09-20T07:16:55.223Z,23.47
2018-09-20T07:18:30.866Z,23.97
2018-09-20T07:20:06.508Z,24.06
2018-09-20T07:21:42.001Z,24.02
2018-09-20T07:23:17.489Z,24.02
2018-09-20T07:24:53.065Z,24.01
2018-09-20T07:26:28.529Z,24.03
2018-09-20T07:28:04.044Z,24.16
2018-09-20T07:29:39.531Z,24.25
2018-09-20T07:31:15.027Z,24.31
2018-09-20T07:32:50.561Z,24.51
2018-09-20T07:34:26.017Z,24.67
2018-09-20T07:36:01.558Z,24.89
2018-09-20T07:37:37.080Z,24.92
2018-09-20T07:39:12.558Z,24.80
2018-09-20T07:40:48.062Z,24.74
2018-09-20T07:42:23.573Z,24.66
2018-09-20T07:43:59.084Z,24.52
2018-09-20T07:45:34.613Z,24.55
2018-09-20T07:47:10.568Z,24.50
2018-09-20T07:48:46.122Z,24.60
2018-09-20T07:50:21.637Z,24.43
2018-09-20T07:51:57.140Z,24.59
2018-09-20T07:53:32.697Z,24.61
2018-09-20T07:55:08.194Z,24.80
2018-09-20T07:56:43.735Z,24.83
2018-09-20T07:58:19.194Z,24.77
2018-09-20T07:59:55.283Z,24.98
2018-09-20T08:01:30.792Z,25.11
2018-09-20T08:03:06.250Z,25.20
2018-09-20T08:04:41.804Z,25.29
2018-09-20T08:06:17.320Z,25.41
2018-09-20T08:07:52.844Z,25.55
2018-09-20T08:09:28.380Z,25.72
2018-09-20T08:11:03.884Z,25.86
2018-09-20T08:12:39.380Z,25.82
2018-09-20T08:14:14.890Z,25.85
2018-09-20T08:15:50.435Z,26.00
2018-09-20T08:17:25.896Z,26.05
2018-09-20T08:19:01.415Z,26.06
2018-09-20T08:20:36.903Z,26.17
2018-09-20T08:22:13.155Z,26.31
2018-09-20T08:23:48.642Z,26.49
2018-09-20T08:25:24.596Z,26.55
2018-09-20T08:27:00.151Z,26.34
2018-09-20T08:28:35.633Z,26.20
2018-09-20T08:30:11.145Z,26.35
2018-09-20T08:31:46.715Z,26.49
2018-09-20T08:33:22.291Z,26.58
2018-09-20T08:34:57.784Z,26.72
2018-09-20T08:36:33.288Z,26.86
2018-09-20T08:38:08.810Z,26.87
2018-09-20T08:39:44.303Z,27.06
2018-09-20T08:41:19.800Z,26.98
2018-09-20T08:42:55.361Z,27.20
2018-09-20T08:44:30.825Z,27.19
2018-09-20T08:46:06.399Z,27.23
2018-09-20T08:47:41.917Z,27.19
2018-09-20T08:49:17.592Z,27.14
2018-09-20T08:50:53.145Z,27.16
2018-09-20T08:52:28.662Z,27.23
2018-09-20T08:54:04.157Z,27.33
2018-09-20T08:55:39.696Z,27.38
2018-09-20T08:57:15.272Z,27.29
2018-09-20T08:58:50.812Z,27.16
2018-09-20T09:00:27.418Z,27.21
2018-09-20T09:02:02.984Z,27.31
2018-09-20T09:03:38.520Z,27.25
2018-09-20T09:05:14.092Z,27.30
2018-09-20T09:07:22.162Z,27.26
2018-09-20T09:08:58.107Z,27.16
2018-09-20T09:10:34.042Z,27.33
2018-09-20T09:12:09.728Z,27.40
2018-09-20T09:13:45.263Z,27.47
2018-09-20T09:15:20.798Z,27.58
2018-09-20T09:16:56.429Z,27.59
2018-09-20T09:18:32.050Z,27.68
2018-09-20T09:20:07.607Z,27.82
2018-09-20T09:21:43.102Z,27.80
2018-09-20T09:23:18.638Z,27.98
2018-09-20T09:24:54.653Z,28.09
2018-09-20T09:26:30.189Z,27.90
2018-09-20T09:28:06.521Z,28.15
2018-09-20T09:29:42.042Z,28.32
2018-09-20T09:31:17.594Z,28.22
2018-09-20T09:32:53.148Z,28.28
2018-09-20T09:34:28.670Z,28.34
2018-09-20T09:36:04.250Z,28.34
2018-09-20T09:37:39.889Z,28.31
2018-09-20T09:39:15.457Z,28.28
2018-09-20T09:40:51.113Z,28.21
2018-09-20T09:42:26.615Z,28.28
2018-09-20T09:44:02.745Z,28.29
2018-09-20T09:45:39.311Z,28.30
2018-09-20T09:47:14.877Z,28.43
2018-09-20T09:48:50.652Z,28.44
2018-09-20T09:50:26.161Z,28.46
2018-09-20T09:52:01.844Z,28.64
2018-09-20T09:53:37.405Z,28.72
2018-09-20T09:55:12.969Z,28.71
2018-09-20T09:56:48.510Z,28.61
2018-09-20T09:58:24.064Z,28.67
2018-09-20T09:59:59.594Z,28.52
2018-09-20T10:01:35.246Z,28.53
2018-09-20T10:03:10.761Z,28.55
2018-09-20T10:04:46.685Z,28.59
2018-09-20T10:06:22.266Z,28.68
2018-09-20T10:07:57.839Z,28.73
2018-09-20T10:09:33.518Z,28.80
2018-09-20T10:11:09.038Z,28.83
2018-09-20T10:12:44.684Z,28.83
2018-09-20T10:14:20.218Z,28.93
2018-09-20T10:15:55.762Z,28.93
2018-09-20T10:17:31.445Z,28.98
2018-09-20T10:19:07.002Z,29.19
2018-09-20T10:20:42.534Z,29.20
2018-09-20T10:22:18.096Z,29.33
2018-09-20T10:23:53.675Z,29.32
2018-09-20T10:25:29.253Z,29.54
2018-09-20T10:27:04.794Z,29.58
2018-09-20T10:28:40.351Z,29.67
2018-09-20T10:30:15.897Z,29.81
2018-09-20T10:31:51.447Z,29.94
2018-09-20T10:33:27.006Z,30.04
2018-09-20T10:35:03.515Z,30.08
2018-09-20T10:36:39.105Z,30.05
2018-09-20T10:38:14.661Z,30.06
2018-09-20T10:39:50.411Z,30.14
2018-09-20T10:41:26.104Z,30.20
2018-09-20T10:43:01.697Z,30.16
2018-09-20T10:44:37.246Z,30.10
2018-09-20T10:46:12.983Z,30.19
2018-09-20T10:47:48.520Z,30.29
2018-09-20T10:49:24.413Z,30.44
2018-09-20T10:50:59.979Z,30.35
2018-09-20T10:52:35.516Z,30.11
2018-09-20T10:54:11.076Z,29.93
2018-09-20T10:55:46.649Z,29.83
2018-09-20T10:57:22.170Z,29.94
2018-09-20T10:58:57.728Z,29.90
2018-09-20T11:00:33.344Z,29.96
2018-09-20T11:02:08.885Z,30.09
2018-09-20T11:03:44.425Z,30.06
2018-09-20T11:05:19.986Z,30.06
2018-09-20T11:06:55.704Z,29.82
2018-09-20T11:08:31.221Z,29.98
2018-09-20T11:10:06.790Z,30.02
2018-09-20T11:11:42.349Z,29.91
2018-09-20T11:13:17.883Z,29.93
2018-09-20T11:14:53.451Z,29.97
2018-09-20T11:16:29.022Z,29.84
2018-09-20T11:18:04.557Z,30.03
2018-09-20T11:19:40.145Z,30.02
2018-09-20T11:21:15.974Z,30.09
2018-09-20T11:22:51.530Z,30.15
2018-09-20T11:24:27.193Z,30.19
2018-09-20T11:26:02.776Z,30.07
2018-09-20T11:27:38.321Z,30.09
2018-09-20T11:29:14.004Z,30.15
2018-09-20T11:30:49.518Z,30.14
2018-09-20T11:32:25.059Z,30.11
2018-09-20T11:34:00.604Z,30.16
2018-09-20T11:35:36.148Z,30.23
2018-09-20T11:37:11.685Z,30.22
2018-09-20T11:38:47.425Z,30.00
2018-09-20T11:40:22.954Z,30.03
2018-09-20T11:41:58.638Z,30.04
2018-09-20T11:43:34.174Z,30.07
2018-09-20T11:45:09.679Z,30.11
2018-09-20T11:46:45.378Z,29.96
2018-09-20T11:48:21.043Z,30.01
2018-09-20T11:49:56.577Z,30.01
2018-09-20T11:51:32.165Z,30.06
2018-09-20T11:53:07.700Z,30.09
2018-09-20T11:54:43.258Z,30.12
2018-09-20T11:56:18.829Z,30.22
2018-09-20T11:57:54.352Z,30.38
2018-09-20T11:59:30.052Z,30.46
2018-09-20T12:01:05.867Z,30.64
2018-09-20T12:02:41.445Z,30.65
2018-09-20T12:04:16.973Z,30.79
2018-09-20T12:05:52.495Z,30.86
2018-09-20T12:07:28.054Z,30.90
2018-09-20T12:09:05.022Z,30.57
2018-09-20T12:10:40.577Z,30.67
2018-09-20T12:12:16.081Z,30.68
2018-09-20T12:13:51.592Z,30.81
2018-09-20T12:15:27.147Z,30.88
2018-09-20T12:17:02.680Z,30.92
2018-09-20T12:18:38.341Z,30.85
2018-09-20T12:20:14.008Z,30.83
2018-09-20T12:21:49.960Z,30.60
2018-09-20T12:23:25.489Z,30.72
2018-09-20T12:25:01.211Z,30.71
2018-09-20T12:26:36.779Z,30.70
2018-09-20T12:28:12.324Z,30.81
2018-09-20T12:29:47.865Z,30.69
2018-09-20T12:31:24.199Z,30.74
2018-09-20T12:32:59.725Z,30.82
2018-09-20T12:34:35.253Z,30.83
2018-09-20T12:36:11.160Z,30.77
2018-09-20T12:37:46.688Z,30.80
2018-09-20T12:39:22.198Z,30.77
2018-09-20T12:40:57.738Z,30.70
2018-09-20T12:42:33.680Z,30.61
2018-09-20T12:44:09.194Z,30.66
2018-09-20T12:45:44.821Z,30.69
2018-09-20T12:47:20.368Z,30.77
2018-09-20T12:48:55.993Z,30.75
2018-09-20T12:50:31.516Z,30.76
2018-09-20T12:52:07.101Z,30.80
2018-09-20T12:53:42.698Z,30.78
2018-09-20T12:55:18.503Z,30.74
2018-09-20T12:56:54.034Z,30.76
2018-09-20T12:58:34.857Z,30.81
2018-09-20T13:00:10.748Z,30.62
2018-09-20T13:01:46.328Z,30.67
2018-09-20T13:03:21.855Z,30.66
2018-09-20T13:04:57.474Z,30.67
2018-09-20T13:06:32.999Z,30.77
2018-09-20T13:08:08.556Z,30.83
2018-09-20T13:09:44.367Z,30.92
2018-09-20T13:11:20.308Z,30.93
2018-09-20T13:12:55.893Z,30.79
2018-09-20T13:14:31.389Z,30.83
2018-09-20T13:16:06.967Z,30.78
2018-09-20T13:17:42.479Z,30.60
2018-09-20T13:19:18.021Z,30.66
2018-09-20T13:20:53.590Z,30.65
2018-09-20T13:22:29.402Z,30.56
2018-09-20T13:24:04.974Z,30.56
2018-09-20T13:25:40.690Z,30.55
2018-09-20T13:27:16.292Z,30.46
2018-09-20T13:28:51.932Z,30.50
2018-09-20T13:30:27.474Z,30.51
2018-09-20T13:32:03.011Z,30.50
2018-09-20T13:33:38.506Z,30.53
2018-09-20T13:35:14.080Z,30.56
2018-09-20T13:36:49.633Z,30.56
2018-09-20T13:38:25.167Z,30.50
2018-09-20T13:40:00.748Z,30.47
2018-09-20T13:41:36.276Z,30.40
2018-09-20T13:43:11.869Z,30.36
2018-09-20T13:44:47.402Z,30.32
2018-09-20T13:46:23.207Z,30.43
2018-09-20T13:47:58.774Z,30.49
2018-09-20T13:49:34.343Z,30.55
2018-09-20T13:51:10.197Z,30.64
2018-09-20T13:52:45.704Z,30.32
2018-09-20T13:54:21.209Z,30.54
2018-09-20T13:55:56.762Z,30.48
2018-09-20T13:57:32.338Z,30.57
2018-09-20T13:59:07.841Z,30.52
2018-09-20T14:00:43.441Z,30.48
2018-09-20T14:02:19.013Z,30.56
2018-09-20T14:03:54.700Z,30.49
2018-09-20T14:05:30.327Z,30.56
2018-09-20T14:07:05.886Z,30.60
2018-09-20T14:08:41.693Z,30.73
2018-09-20T14:10:17.232Z,30.75
2018-09-20T14:11:52.932Z,30.62
2018-09-20T14:13:28.496Z,30.59
2018-09-20T14:15:03.995Z,30.51
2018-09-20T14:16:39.505Z,30.53
2018-09-20T14:18:15.069Z,30.53
2018-09-20T14:19:50.579Z,30.09
2018-09-20T14:21:26.121Z,30.46
2018-09-20T14:23:01.657Z,30.45
2018-09-20T14:24:37.181Z,30.48
2018-09-20T14:26:12.715Z,30.55
2018-09-20T14:27:48.301Z,30.44
2018-09-20T14:29:23.884Z,30.41
2018-09-20T14:30:59.371Z,30.32
2018-09-20T14:32:34.928Z,30.41
2018-09-20T14:34:10.650Z,30.43
2018-09-20T14:35:46.229Z,30.47
2018-09-20T14:37:21.802Z,30.45
2018-09-20T14:38:57.766Z,30.35
2018-09-20T14:40:33.654Z,30.30
2018-09-20T14:42:09.185Z,30.27
2018-09-20T14:43:44.750Z,30.22
2018-09-20T14:45:20.543Z,30.15
2018-09-20T14:46:56.430Z,30.26
2018-09-20T14:48:32.061Z,30.23
2018-09-20T14:50:07.920Z,30.27
2018-09-20T14:51:43.469Z,30.22
2018-09-20T14:53:18.993Z,30.11
2018-09-20T14:54:54.569Z,30.08
2018-09-20T14:56:30.201Z,30.12
2018-09-20T14:58:06.413Z,30.20
2018-09-20T14:59:42.023Z,30.21
2018-09-20T15:01:17.535Z,30.18
2018-09-20T15:02:53.102Z,30.17
2018-09-20T15:04:28.695Z,30.27
2018-09-20T15:06:04.338Z,30.21
2018-09-20T15:07:39.859Z,30.15
2018-09-20T15:09:16.605Z,30.13
2018-09-20T15:10:52.481Z,30.11
2018-09-20T15:12:28.011Z,30.05
2018-09-20T15:14:03.597Z,30.01
2018-09-20T15:15:39.199Z,30.01
2018-09-20T15:17:14.777Z,29.95
2018-09-20T15:18:50.358Z,29.95
2018-09-20T15:20:25.887Z,29.91
2018-09-20T15:22:01.476Z,29.88
2018-09-20T15:23:37.121Z,29.83
2018-09-20T15:25:12.699Z,29.85
2018-09-20T15:26:48.315Z,29.86
2018-09-20T15:28:23.827Z,29.85
2018-09-20T15:29:59.462Z,29.76
2018-09-20T15:31:34.989Z,29.71
2018-09-20T15:33:10.960Z,29.54
2018-09-20T15:34:46.502Z,29.56
2018-09-20T15:36:22.042Z,29.50
2018-09-20T15:37:57.616Z,29.50
2018-09-20T15:39:33.191Z,29.42
2018-09-20T15:41:08.748Z,29.40
2018-09-20T15:42:44.260Z,29.39
2018-09-20T15:44:19.775Z,29.30
2018-09-20T15:45:55.342Z,29.28
2018-09-20T15:47:31.212Z,29.30
2018-09-20T15:49:06.661Z,29.22
2018-09-20T15:50:42.274Z,29.23
2018-09-20T15:52:17.788Z,29.18
2018-09-20T15:53:53.482Z,29.12
2018-09-20T15:55:29.023Z,29.02
2018-09-20T15:57:04.590Z,28.93
2018-09-20T15:58:40.089Z,28.92
2018-09-20T16:00:15.677Z,28.81
2018-09-20T16:01:51.222Z,28.81
2018-09-20T16:03:26.948Z,28.75
2018-09-20T16:05:02.496Z,28.74
2018-09-20T16:06:38.280Z,28.72
2018-09-20T16:08:14.060Z,28.70
2018-09-20T16:09:49.725Z,28.60
2018-09-20T16:11:25.577Z,28.46
2018-09-20T16:13:01.346Z,28.49
2018-09-20T16:14:37.021Z,28.42
2018-09-20T16:16:12.763Z,28.31
2018-09-20T16:17:48.321Z,28.26
2018-09-20T16:19:23.919Z,28.25
2018-09-20T16:20:59.941Z,28.21
2018-09-20T16:22:35.613Z,28.10
2018-09-20T16:24:11.290Z,28.01
2018-09-20T16:25:47.241Z,27.99
2018-09-20T16:27:23.161Z,28.00
2018-09-20T16:30:09.361Z,27.94
2018-09-20T16:32:11.885Z,27.75
2018-09-20T16:34:02.060Z,27.43
2018-09-20T16:35:41.779Z,27.59
2018-09-20T16:37:25.845Z,27.58
2018-09-20T16:39:08.878Z,27.54
2018-09-20T16:40:45.829Z,27.42
2018-09-20T16:42:22.494Z,27.44
2018-09-20T16:43:58.154Z,27.24
2018-09-20T16:45:34.134Z,27.30
2018-09-20T16:47:09.819Z,27.30
2018-09-20T16:48:45.386Z,27.23
2018-09-20T16:50:20.969Z,27.21
2018-09-20T16:51:56.582Z,27.31
2018-09-20T16:53:32.188Z,27.21
2018-09-20T16:55:07.733Z,27.08
2018-09-20T16:56:43.264Z,27.05
2018-09-20T16:58:18.806Z,27.10
2018-09-20T16:59:54.411Z,27.01
2018-09-20T17:01:30.146Z,26.94
2018-09-20T17:03:05.726Z,26.91
2018-09-20T17:04:41.260Z,26.74
2018-09-20T17:06:17.993Z,26.62
2018-09-20T17:07:53.586Z,26.52
2018-09-20T17:09:29.184Z,26.51
2018-09-20T17:11:04.756Z,26.48
2018-09-20T17:12:40.358Z,26.40
2018-09-20T17:14:15.943Z,26.47
2018-09-20T17:15:52.087Z,26.44
2018-09-20T17:17:27.955Z,26.42
2018-09-20T17:19:03.717Z,26.31
2018-09-20T17:20:39.505Z,26.36
2018-09-20T17:22:15.090Z,26.35
2018-09-20T17:23:51.055Z,26.24
2018-09-20T17:25:27.010Z,26.25
2018-09-20T17:27:02.970Z,26.16
2018-09-20T17:28:39.259Z,26.07
2018-09-20T17:30:16.181Z,25.96
2018-09-20T17:31:54.681Z,25.86
2018-09-20T17:33:30.404Z,25.85
2018-09-20T17:35:05.978Z,25.82
2018-09-20T17:36:41.784Z,25.92
2018-09-20T17:38:18.219Z,25.84
2018-09-20T17:39:54.613Z,25.78
2018-09-20T17:41:32.462Z,25.75
2018-09-20T17:43:10.541Z,25.70
2018-09-20T17:44:46.406Z,25.65
2018-09-20T17:46:21.985Z,25.68
2018-09-20T17:47:57.684Z,25.56
2018-09-20T17:49:33.352Z,25.55
2018-09-20T17:51:09.695Z,25.54
2018-09-20T17:52:46.655Z,25.50
2018-09-20T17:54:23.993Z,25.53
2018-09-20T17:56:00.382Z,25.62
2018-09-20T17:57:36.975Z,25.62
2018-09-20T17:59:12.649Z,25.56
2018-09-20T18:00:52.002Z,25.52
2018-09-20T18:02:28.062Z,25.45
2018-09-20T18:04:03.667Z,25.41
2018-09-20T18:05:39.457Z,25.30
2018-09-20T18:07:15.146Z,25.22
2018-09-20T18:08:50.905Z,25.09
2018-09-20T18:10:26.710Z,25.00
2018-09-20T18:12:02.408Z,24.92
2018-09-20T18:13:38.016Z,24.86
2018-09-20T18:15:13.559Z,24.79
2018-09-20T18:16:50.384Z,24.70
2018-09-20T18:18:27.186Z,24.60
2018-09-20T18:20:04.991Z,24.48
2018-09-20T18:21:45.186Z,24.50
2018-09-20T18:23:26.780Z,24.55
2018-09-20T18:25:06.647Z,24.58
2018-09-20T18:26:43.910Z,24.54
2018-09-20T18:28:21.443Z,24.56
2018-09-20T18:29:57.057Z,24.60
2018-09-20T18:31:32.685Z,24.57
2018-09-20T18:33:09.680Z,24.59
2018-09-20T18:34:45.303Z,24.56
2018-09-20T18:36:20.928Z,24.50
2018-09-20T18:37:56.622Z,24.48
2018-09-20T18:39:32.245Z,24.39
2018-09-20T18:41:09.178Z,24.36
2018-09-20T18:42:44.798Z,24.41
2018-09-20T18:44:20.410Z,24.37
2018-09-20T18:45:56.041Z,24.38
2018-09-20T18:47:31.861Z,24.45
2018-09-20T18:49:07.794Z,24.46
2018-09-20T18:50:43.341Z,24.43
2018-09-20T18:52:18.852Z,24.30
2018-09-20T18:53:54.402Z,24.23
2018-09-20T18:55:30.082Z,24.26
2018-09-20T18:57:05.695Z,24.14
2018-09-20T18:58:41.280Z,24.15
2018-09-20T19:00:17.050Z,24.12
2018-09-20T19:01:53.495Z,24.04
2018-09-20T19:03:29.487Z,24.05
2018-09-20T19:05:07.873Z,23.98
2018-09-20T19:06:43.490Z,23.87
2018-09-20T19:08:19.579Z,23.85
2018-09-20T19:09:55.328Z,23.71
2018-09-20T19:11:31.044Z,23.58
2018-09-20T19:13:07.020Z,23.48
2018-09-20T19:14:42.737Z,23.47
2018-09-20T19:16:19.020Z,23.57
2018-09-20T19:17:55.714Z,23.50
2018-09-20T19:19:31.526Z,23.52
2018-09-20T19:21:07.467Z,23.61
2018-09-20T19:22:43.262Z,23.59
2018-09-20T19:24:18.954Z,23.30
2018-09-20T19:25:54.679Z,23.19
2018-09-20T19:27:30.311Z,23.28
2018-09-20T19:29:05.974Z,23.32
2018-09-20T19:30:41.539Z,23.37
2018-09-20T19:32:17.353Z,23.34
2018-09-20T19:33:53.204Z,23.37
2018-09-20T19:35:29.130Z,23.40
2018-09-20T19:37:04.853Z,23.34
2018-09-20T19:38:40.654Z,23.36
2018-09-20T19:40:16.223Z,23.26
2018-09-20T19:41:51.818Z,23.35
2018-09-20T19:43:27.454Z,23.34
2018-09-20T19:45:02.995Z,23.32
2018-09-20T19:46:38.646Z,23.19
2018-09-20T19:48:14.735Z,23.08
2018-09-20T19:49:50.353Z,22.95
2018-09-20T19:51:29.190Z,22.98
2018-09-20T19:53:04.746Z,22.88
2018-09-20T19:54:40.830Z,22.80
2018-09-20T19:56:16.815Z,22.96
2018-09-20T19:57:53.119Z,23.02
2018-09-20T19:59:28.691Z,23.05
2018-09-20T20:01:04.618Z,22.91
2018-09-20T20:02:40.428Z,22.66
2018-09-20T20:04:15.986Z,22.61
2018-09-20T20:05:51.693Z,22.78
2018-09-20T20:07:27.453Z,22.94
2018-09-20T20:09:03.036Z,22.83
2018-09-20T20:10:38.561Z,22.80
2018-09-20T20:12:14.124Z,22.71
2018-09-20T20:13:49.727Z,22.65
2018-09-20T20:15:29.111Z,22.61
2018-09-20T20:17:08.057Z,22.55
2018-09-20T20:18:43.651Z,22.55
2018-09-20T20:20:19.250Z,22.55
2018-09-20T20:21:54.933Z,22.39
2018-09-20T20:23:30.554Z,22.52
2018-09-20T20:25:06.087Z,22.51
2018-09-20T20:26:41.965Z,22.48
2018-09-20T20:28:17.518Z,22.36
2018-09-20T20:29:53.075Z,22.36
2018-09-20T20:31:28.699Z,22.32
2018-09-20T20:33:04.291Z,22.45
2018-09-20T20:34:39.877Z,22.35
2018-09-20T20:36:15.577Z,22.32